Time;durP1;ratioP1;P1;durP2;ratioP2;P2;SDS_P1;SDS_P2;PMS_P1;PMS_P2;Temp;Humidity;BMP_temperature;BMP_pressure;BME280_temperature;BME280_humidity;BME280_pressure;Samples;Min_cycle;Max_cycle;Signal;HPM_P1;HPM_P2
2023/02/25 00:00:16;;;;;;;13.15;1.88;;;5.30;99.90;;;;;;5028749;28;25065;-73
2023/02/25 00:02:43;;;;;;;8.48;1.80;;;5.30;99.90;;;;;;5032243;28;25087;-76
2023/02/25 00:05:08;;;;;;;11.52;1.88;;;5.30;99.90;;;;;;5033060;28;25054;-75
2023/02/25 00:07:34;;;;;;;11.77;1.98;;;5.30;99.90;;;;;;5034044;28;25075;-75
2023/02/25 00:10:00;;;;;;;9.65;1.92;;;5.40;99.90;;;;;;5016967;28;25063;-74
2023/02/25 00:12:28;;;;;;;12.18;3.20;;;5.40;99.90;;;;;;5032225;28;25115;-76
2023/02/25 00:14:53;;;;;;;13.48;2.47;;;5.40;99.90;;;;;;5031666;28;25106;-75
2023/02/25 00:17:19;;;;;;;10.80;2.42;;;5.30;99.90;;;;;;5030713;28;25076;-72
2023/02/25 00:19:44;;;;;;;10.88;2.03;;;5.40;99.90;;;;;;5032988;28;25057;-74
2023/02/25 00:22:10;;;;;;;8.65;2.42;;;5.40;99.90;;;;;;5033857;28;25055;-76
2023/02/25 00:24:36;;;;;;;12.60;2.05;;;5.40;99.90;;;;;;5033121;28;25083;-74
2023/02/25 00:27:02;;;;;;;12.75;2.45;;;5.40;99.90;;;;;;5033561;28;25073;-72
2023/02/25 00:29:28;;;;;;;14.52;2.30;;;5.40;99.90;;;;;;5036174;28;25160;-72
2023/02/25 00:31:54;;;;;;;8.85;1.83;;;5.40;99.90;;;;;;5033300;28;25076;-73
2023/02/25 00:34:19;;;;;;;14.27;2.28;;;5.40;99.90;;;;;;5035483;28;25064;-75
2023/02/25 00:36:45;;;;;;;11.00;2.03;;;5.40;99.90;;;;;;5021042;28;25055;-75
2023/02/25 00:39:11;;;;;;;10.32;2.22;;;5.40;99.90;;;;;;5032406;28;25054;-75
2023/02/25 00:41:37;;;;;;;22.20;2.47;;;5.40;99.90;;;;;;5033344;28;25076;-74
2023/02/25 00:44:03;;;;;;;10.70;1.92;;;5.40;99.90;;;;;;5033167;28;25093;-73
2023/02/25 00:46:31;;;;;;;17.75;2.30;;;5.40;99.90;;;;;;5024395;28;25151;-75
2023/02/25 00:48:57;;;;;;;14.70;2.78;;;5.30;99.90;;;;;;5037080;28;25148;-75
2023/02/25 00:51:27;;;;;;;14.05;2.40;;;5.30;99.90;;;;;;5034783;28;25102;-76
2023/02/25 00:53:57;;;;;;;14.60;2.90;;;5.40;99.90;;;;;;5036114;28;25080;-74
2023/02/25 00:56:24;;;;;;;12.73;2.33;;;5.30;99.90;;;;;;5035883;28;25048;-74
2023/02/25 00:58:51;;;;;;;14.25;2.53;;;5.40;99.90;;;;;;5036400;28;25076;-77
2023/02/25 01:01:25;;;;;;;15.00;2.88;;;5.40;99.90;;;;;;5034996;28;25081;-76
2023/02/25 01:03:52;;;;;;;12.23;3.10;;;5.40;99.90;;;;;;5034567;28;25195;-74
2023/02/25 01:06:18;;;;;;;12.18;2.60;;;5.50;99.90;;;;;;5035111;28;25059;-74
2023/02/25 01:08:44;;;;;;;17.77;2.35;;;5.40;99.90;;;;;;5035893;28;25074;-73
2023/02/25 01:11:19;;;;;;;17.48;3.33;;;5.40;99.90;;;;;;5036592;28;25067;-74
2023/02/25 01:13:47;;;;;;;7.15;1.83;;;5.40;99.90;;;;;;5037810;28;25055;-72
2023/02/25 01:16:15;;;;;;;9.73;1.40;;;5.30;99.90;;;;;;5036569;28;25075;-74
2023/02/25 01:18:41;;;;;;;7.07;1.75;;;5.30;99.90;;;;;;5035651;28;25072;-74
2023/02/25 01:21:13;;;;;;;14.63;4.03;;;5.30;99.90;;;;;;5035202;28;25079;-74
2023/02/25 01:23:38;;;;;;;10.50;2.08;;;5.20;99.90;;;;;;5034415;28;25062;-73
2023/02/25 01:26:04;;;;;;;14.40;1.90;;;5.20;99.90;;;;;;5033528;28;25056;-74
2023/02/25 01:28:29;;;;;;;14.23;2.33;;;5.20;99.90;;;;;;5035376;28;25124;-75
2023/02/25 01:30:55;;;;;;;8.80;1.83;;;5.30;99.90;;;;;;5025495;28;25058;-74
2023/02/25 01:33:21;;;;;;;7.97;1.25;;;5.20;99.90;;;;;;5024657;28;25073;-74
2023/02/25 01:35:46;;;;;;;11.10;1.73;;;5.20;99.90;;;;;;5035316;28;25076;-73
2023/02/25 01:38:12;;;;;;;10.40;4.60;;;5.30;99.90;;;;;;5031579;28;25178;-79
2023/02/25 01:40:37;;;;;;;21.52;1.85;;;5.30;99.90;;;;;;5033093;28;25122;-73
2023/02/25 01:43:04;;;;;;;16.08;2.65;;;5.30;99.90;;;;;;5022813;28;25066;-74
2023/02/25 01:45:31;;;;;;;8.52;1.65;;;5.30;99.90;;;;;;5034344;28;25123;-75
2023/02/25 01:48:02;;;;;;;8.82;2.83;;;5.40;99.90;;;;;;5034043;28;25080;-77
2023/02/25 01:50:38;;;;;;;15.05;2.45;;;5.40;99.90;;;;;;5035529;28;25117;-74
2023/02/25 01:53:05;;;;;;;8.25;1.85;;;5.40;99.90;;;;;;5033608;28;25165;-73
2023/02/25 01:55:31;;;;;;;14.25;2.17;;;5.40;99.90;;;;;;5034530;28;25060;-73
2023/02/25 01:57:59;;;;;;;13.95;1.83;;;5.50;99.90;;;;;;5035104;28;25117;-78
2023/02/25 02:00:27;;;;;;;16.80;1.73;;;5.40;99.90;;;;;;5035745;28;25059;-73
2023/02/25 02:02:54;;;;;;;10.65;2.30;;;5.50;99.90;;;;;;5038260;28;25051;-74
2023/02/25 02:05:22;;;;;;;17.60;2.45;;;5.50;99.90;;;;;;5037555;28;25167;-77
2023/02/25 02:07:48;;;;;;;12.40;1.92;;;5.50;99.90;;;;;;5021738;28;25063;-74
2023/02/25 02:10:13;;;;;;;18.42;2.83;;;5.50;99.90;;;;;;5033589;28;25071;-74
2023/02/25 02:12:42;;;;;;;16.65;2.88;;;5.50;99.90;;;;;;5034558;28;25166;-74
2023/02/25 02:15:11;;;;;;;8.35;2.58;;;5.50;99.90;;;;;;5023238;28;25078;-74
2023/02/25 02:17:57;;;;;;;16.65;2.83;;;5.40;99.90;;;;;;5033831;28;25082;-74
2023/02/25 02:20:35;;;;;;;10.15;1.83;;;5.40;99.90;;;;;;5037460;28;25092;-73
2023/02/25 02:23:27;;;;;;;10.25;2.13;;;5.40;99.90;;;;;;5027999;28;25093;-76
2023/02/25 02:26:22;;;;;;;14.27;2.28;;;5.40;99.90;;;;;;5040304;28;25057;-75
2023/02/25 02:29:08;;;;;;;15.20;2.67;;;5.40;99.90;;;;;;5037345;28;25079;-75
2023/02/25 02:32:09;;;;;;;14.00;2.05;;;5.40;99.90;;;;;;5036080;28;25077;-74
2023/02/25 02:34:39;;;;;;;13.38;3.13;;;5.40;99.90;;;;;;5029817;28;25069;-73
2023/02/25 02:37:43;;;;;;;14.63;2.08;;;5.40;99.90;;;;;;5021300;28;25061;-74
2023/02/25 02:40:23;;;;;;;10.55;2.38;;;5.50;99.90;;;;;;5033827;28;25107;-73
2023/02/25 02:43:10;;;;;;;11.98;2.67;;;5.40;99.90;;;;;;5034615;28;25058;-76
2023/02/25 02:45:45;;;;;;;8.93;2.05;;;5.30;99.90;;;;;;5034674;28;25066;-77
2023/02/25 02:48:21;;;;;;;9.95;2.42;;;5.30;99.90;;;;;;5021641;28;25065;-75
2023/02/25 02:50:59;;;;;;;9.80;2.20;;;5.30;99.90;;;;;;5035358;28;25053;-74
2023/02/25 02:53:31;;;;;;;15.48;2.13;;;5.30;99.90;;;;;;5035919;28;25089;-75
2023/02/25 02:56:02;;;;;;;12.73;2.10;;;5.20;99.90;;;;;;5035734;28;25062;-78
2023/02/25 02:58:33;;;;;;;7.28;1.65;;;5.20;99.90;;;;;;5023783;28;25058;-75
2023/02/25 03:01:08;;;;;;;18.02;1.83;;;5.20;99.90;;;;;;5034307;28;25112;-73
2023/02/25 03:03:45;;;;;;;12.23;1.70;;;5.20;99.90;;;;;;5035256;28;25139;-75
2023/02/25 03:06:18;;;;;;;17.60;2.47;;;5.20;99.90;;;;;;5034014;28;25105;-73
2023/02/25 03:08:48;;;;;;;14.35;2.67;;;5.20;99.90;;;;;;5035185;28;25064;-75
2023/02/25 03:11:14;;;;;;;10.95;4.70;;;5.20;99.90;;;;;;5034388;28;25061;-75
2023/02/25 03:13:40;;;;;;;9.45;1.85;;;5.20;99.90;;;;;;5033859;28;25082;-73
2023/02/25 03:16:11;;;;;;;11.18;3.17;;;5.20;99.90;;;;;;5036202;28;25056;-73
2023/02/25 03:18:42;;;;;;;11.55;2.03;;;5.20;99.90;;;;;;5033817;28;25101;-78
2023/02/25 03:21:16;;;;;;;8.65;2.05;;;5.30;99.90;;;;;;5035078;28;25132;-74
2023/02/25 03:23:45;;;;;;;9.00;1.80;;;5.30;99.90;;;;;;5033210;28;25069;-74
2023/02/25 03:26:18;;;;;;;7.82;1.90;;;5.40;99.90;;;;;;5033945;28;25090;-76
2023/02/25 03:28:45;;;;;;;12.45;3.17;;;5.20;99.90;;;;;;5034404;28;25084;-73
2023/02/25 03:31:23;;;;;;;9.60;1.90;;;5.10;99.90;;;;;;5034575;28;25052;-75
2023/02/25 03:34:11;;;;;;;14.70;1.77;;;5.10;99.90;;;;;;5033708;28;25057;-75
2023/02/25 03:36:51;;;;;;;12.70;1.60;;;5.00;99.90;;;;;;5019719;28;25063;-75
2023/02/25 03:39:21;;;;;;;9.02;1.48;;;5.00;99.90;;;;;;5021036;28;25075;-76
2023/02/25 03:41:54;;;;;;;10.75;1.77;;;5.00;99.90;;;;;;5033818;28;25049;-74
2023/02/25 03:44:42;;;;;;;11.52;2.08;;;5.00;99.90;;;;;;5035224;28;25057;-75
2023/02/25 03:47:09;;;;;;;10.45;2.00;;;5.00;99.90;;;;;;5017550;28;25147;-75
2023/02/25 03:50:01;;;;;;;8.13;1.60;;;5.00;99.90;;;;;;5022924;28;25066;-75
2023/02/25 03:52:28;;;;;;;15.77;1.88;;;5.00;99.90;;;;;;5033685;28;25046;-76
2023/02/25 03:54:56;;;;;;;7.38;1.83;;;4.90;99.90;;;;;;5035432;28;25071;-75
2023/02/25 03:57:25;;;;;;;8.50;1.80;;;4.90;99.90;;;;;;5032198;28;25077;-75
2023/02/25 03:59:55;;;;;;;13.77;3.00;;;4.80;99.90;;;;;;5023154;28;25048;-73
2023/02/25 04:02:28;;;;;;;5.82;1.52;;;4.80;99.90;;;;;;5037835;28;25041;-74
2023/02/25 04:04:54;;;;;;;11.55;2.38;;;4.80;99.90;;;;;;5037145;28;25068;-75
2023/02/25 04:07:19;;;;;;;7.97;3.67;;;4.80;99.90;;;;;;5046834;28;25058;-77
2023/02/25 04:09:45;;;;;;;12.13;2.25;;;4.80;99.90;;;;;;5036127;28;25069;-75
2023/02/25 04:12:10;;;;;;;14.00;2.20;;;4.90;99.90;;;;;;5036015;28;25113;-75
2023/02/25 04:14:36;;;;;;;6.18;1.80;;;4.90;99.90;;;;;;5034843;28;25068;-76
2023/02/25 04:17:04;;;;;;;8.93;1.80;;;4.90;99.90;;;;;;5033366;28;26207;-75
2023/02/25 04:19:29;;;;;;;11.32;2.20;;;4.90;99.90;;;;;;5035416;28;25053;-76
2023/02/25 04:21:55;;;;;;;13.77;2.30;;;4.90;99.90;;;;;;5034974;28;25078;-75
2023/02/25 04:24:20;;;;;;;16.92;2.20;;;5.00;99.90;;;;;;5034241;28;25066;-77
2023/02/25 04:26:46;;;;;;;9.23;1.90;;;5.00;99.90;;;;;;5035324;28;25138;-77
2023/02/25 04:29:11;;;;;;;16.13;2.10;;;5.00;99.90;;;;;;5032152;28;25094;-74
2023/02/25 04:31:37;;;;;;;12.65;1.88;;;5.00;99.90;;;;;;5030422;28;25075;-73
2023/02/25 04:34:02;;;;;;;7.50;1.48;;;5.00;99.90;;;;;;5030748;28;25053;-73
2023/02/25 04:36:31;;;;;;;16.48;1.95;;;5.00;99.90;;;;;;5031994;28;25073;-75
2023/02/25 04:38:59;;;;;;;10.38;2.50;;;5.00;99.90;;;;;;5031907;28;25071;-77
2023/02/25 04:41:29;;;;;;;12.75;3.22;;;5.00;99.90;;;;;;5017481;28;25102;-75
2023/02/25 04:43:54;;;;;;;11.38;3.22;;;5.00;99.90;;;;;;5032706;28;25120;-74
2023/02/25 04:46:20;;;;;;;6.90;1.90;;;5.00;99.90;;;;;;5031689;28;25073;-74
2023/02/25 04:48:45;;;;;;;9.35;1.58;;;5.10;99.90;;;;;;5031834;28;25076;-75
2023/02/25 04:51:11;;;;;;;12.60;2.28;;;5.10;99.90;;;;;;5031994;28;25074;-76
2023/02/25 04:53:37;;;;;;;17.80;2.83;;;5.10;99.90;;;;;;5032656;28;25044;-74
2023/02/25 04:56:05;;;;;;;8.68;2.63;;;5.10;99.90;;;;;;5033306;28;25108;-75
2023/02/25 04:58:32;;;;;;;16.38;2.58;;;5.20;99.90;;;;;;5034443;28;25154;-75
2023/02/25 05:01:00;;;;;;;10.23;1.95;;;5.20;99.90;;;;;;5035032;28;25065;-73
2023/02/25 05:03:26;;;;;;;18.50;3.28;;;5.20;99.90;;;;;;5029201;28;25052;-74
2023/02/25 05:05:52;;;;;;;6.18;1.52;;;5.20;99.90;;;;;;5019837;28;25053;-73
2023/02/25 05:08:18;;;;;;;9.70;2.28;;;5.30;99.90;;;;;;5018997;28;25073;-73
2023/02/25 05:10:43;;;;;;;13.52;2.05;;;5.20;99.90;;;;;;5004821;28;25080;-74
2023/02/25 05:13:09;;;;;;;16.23;2.83;;;5.20;99.90;;;;;;5033681;28;25083;-75
2023/02/25 05:15:36;;;;;;;15.45;2.47;;;5.10;99.90;;;;;;5021583;28;25093;-72
2023/02/25 05:18:01;;;;;;;9.13;1.98;;;5.10;99.90;;;;;;5036693;28;25058;-76
2023/02/25 05:20:27;;;;;;;13.30;2.10;;;5.10;99.90;;;;;;5034681;28;25018;-75
2023/02/25 05:22:53;;;;;;;14.23;3.70;;;5.10;99.90;;;;;;5035802;28;25064;-73
2023/02/25 05:25:19;;;;;;;17.02;2.50;;;5.00;99.90;;;;;;5035823;28;25100;-75
2023/02/25 05:27:44;;;;;;;19.15;3.47;;;5.00;99.90;;;;;;5035559;28;25079;-75
2023/02/25 05:30:11;;;;;;;9.50;2.08;;;5.00;99.90;;;;;;5024507;28;25053;-72
2023/02/25 05:32:37;;;;;;;14.55;2.10;;;5.00;99.90;;;;;;5030923;28;25076;-74
2023/02/25 05:35:03;;;;;;;20.88;2.47;;;4.90;99.90;;;;;;5034084;28;25075;-73
2023/02/25 05:37:31;;;;;;;15.68;3.97;;;5.00;99.90;;;;;;5036113;28;25091;-75
2023/02/25 05:39:57;;;;;;;13.07;1.90;;;4.90;99.90;;;;;;5034830;28;25078;-72
2023/02/25 05:42:23;;;;;;;14.68;2.53;;;4.90;99.90;;;;;;5035424;28;25072;-73
2023/02/25 05:44:49;;;;;;;10.60;2.30;;;4.90;99.90;;;;;;5037183;28;25188;-75
2023/02/25 05:47:15;;;;;;;17.98;2.40;;;4.90;99.90;;;;;;5038177;28;25142;-72
2023/02/25 05:49:41;;;;;;;16.25;3.15;;;4.80;99.90;;;;;;5039839;28;25079;-73
2023/02/25 05:52:07;;;;;;;19.15;2.50;;;4.90;99.90;;;;;;5009794;28;25065;-74
2023/02/25 05:54:33;;;;;;;11.98;2.42;;;4.90;99.90;;;;;;5035018;28;25063;-74
2023/02/25 05:56:58;;;;;;;18.35;2.20;;;4.90;99.90;;;;;;5036961;28;25081;-74
2023/02/25 05:59:24;;;;;;;6.97;1.90;;;4.90;99.90;;;;;;5035295;28;25085;-72
2023/02/25 06:01:50;;;;;;;15.55;2.83;;;4.90;99.90;;;;;;5031650;28;25085;-71
2023/02/25 06:04:15;;;;;;;9.95;3.00;;;4.90;99.90;;;;;;5033707;28;25066;-74
2023/02/25 06:06:41;;;;;;;11.45;2.40;;;4.90;99.90;;;;;;5036533;28;25113;-77
2023/02/25 06:09:08;;;;;;;11.82;1.95;;;4.90;99.90;;;;;;5035078;28;25067;-73
2023/02/25 06:11:34;;;;;;;13.40;2.45;;;4.90;99.90;;;;;;5043563;28;25059;-76
2023/02/25 06:14:00;;;;;;;17.02;2.40;;;4.90;99.90;;;;;;5047920;28;25066;-74
2023/02/25 06:16:30;;;;;;;12.80;1.83;;;4.90;99.90;;;;;;5035094;28;25061;-72
2023/02/25 06:18:57;;;;;;;14.80;2.85;;;4.90;99.90;;;;;;5035926;28;25065;-73
2023/02/25 06:21:23;;;;;;;15.68;2.00;;;4.80;99.90;;;;;;5010992;28;25071;-74
2023/02/25 06:23:49;;;;;;;18.35;2.80;;;4.80;99.90;;;;;;5035797;28;25064;-73
2023/02/25 06:26:15;;;;;;;11.30;2.00;;;4.90;99.90;;;;;;5035913;28;25082;-73
2023/02/25 06:28:41;;;;;;;16.83;2.67;;;4.90;99.90;;;;;;5035722;28;25041;-73
2023/02/25 06:31:13;;;;;;;15.02;2.15;;;5.00;99.90;;;;;;5023528;28;25068;-75
2023/02/25 06:33:39;;;;;;;15.13;2.95;;;5.00;99.90;;;;;;5032539;28;25048;-75
2023/02/25 06:36:05;;;;;;;14.15;2.15;;;5.00;99.90;;;;;;5035505;28;25062;-75
2023/02/25 06:38:32;;;;;;;13.95;2.72;;;5.00;99.90;;;;;;5032040;28;25085;-75
2023/02/25 06:40:58;;;;;;;12.02;1.90;;;5.00;99.90;;;;;;5035570;28;25158;-75
2023/02/25 06:43:23;;;;;;;14.85;2.70;;;5.00;99.90;;;;;;5025361;28;25068;-74
2023/02/25 06:45:49;;;;;;;12.10;2.65;;;5.00;99.90;;;;;;5032899;28;25136;-74
2023/02/25 06:48:15;;;;;;;16.27;3.13;;;5.00;99.90;;;;;;5036832;28;25063;-74
2023/02/25 06:50:41;;;;;;;18.20;2.78;;;5.00;99.90;;;;;;5035815;28;25074;-74
2023/02/25 06:53:07;;;;;;;16.75;3.67;;;5.10;99.90;;;;;;5035835;28;25068;-73
2023/02/25 06:55:33;;;;;;;12.27;4.15;;;5.00;99.90;;;;;;5036059;28;25171;-73
2023/02/25 06:57:58;;;;;;;15.38;2.35;;;5.00;99.90;;;;;;5036883;28;25171;-73
2023/02/25 07:00:24;;;;;;;17.63;2.60;;;5.00;99.90;;;;;;5034412;28;25054;-75
2023/02/25 07:02:50;;;;;;;9.10;2.78;;;4.90;99.90;;;;;;5037184;28;25100;-75
2023/02/25 07:05:15;;;;;;;13.57;2.22;;;4.90;99.90;;;;;;5035759;28;25065;-73
2023/02/25 07:07:41;;;;;;;12.15;2.10;;;4.90;99.90;;;;;;5033014;28;25152;-73
2023/02/25 07:10:07;;;;;;;20.42;2.95;;;5.00;99.90;;;;;;5034168;28;25041;-76
2023/02/25 07:12:33;;;;;;;19.65;2.65;;;5.00;99.90;;;;;;5033670;28;25057;-73
2023/02/25 07:14:58;;;;;;;18.02;3.03;;;5.00;99.90;;;;;;5032887;28;25073;-73
2023/02/25 07:17:24;;;;;;;10.15;2.55;;;5.00;99.90;;;;;;5025753;28;25178;-75
2023/02/25 07:19:49;;;;;;;16.63;3.58;;;5.10;99.90;;;;;;5033622;28;25066;-71
2023/02/25 07:22:17;;;;;;;16.58;3.08;;;5.20;99.90;;;;;;5035257;28;25060;-75
2023/02/25 07:24:44;;;;;;;12.48;2.60;;;5.20;99.90;;;;;;5034815;28;25088;-76
2023/02/25 07:27:12;;;;;;;10.52;1.85;;;5.20;99.90;;;;;;5033028;28;25051;-71
2023/02/25 07:29:37;;;;;;;16.92;2.80;;;5.20;99.90;;;;;;5032844;28;25063;-73
2023/02/25 07:32:03;;;;;;;10.55;3.60;;;5.20;99.90;;;;;;5036856;28;25058;-71
2023/02/25 07:34:29;;;;;;;11.10;1.80;;;5.10;99.90;;;;;;5036561;28;25065;-75
2023/02/25 07:36:54;;;;;;;8.27;1.60;;;5.10;99.90;;;;;;5035495;28;25053;-72
2023/02/25 07:39:20;;;;;;;12.75;1.95;;;5.10;99.90;;;;;;5037108;28;25105;-73
2023/02/25 07:41:47;;;;;;;13.20;3.15;;;5.10;99.90;;;;;;5037498;28;25057;-74
2023/02/25 07:44:12;;;;;;;10.98;2.25;;;5.20;99.90;;;;;;5035134;28;25061;-75
2023/02/25 07:46:39;;;;;;;10.05;2.00;;;5.20;99.90;;;;;;5037479;28;25105;-74
2023/02/25 07:49:05;;;;;;;10.93;1.98;;;5.20;99.90;;;;;;5036201;28;25066;-75
2023/02/25 07:51:31;;;;;;;9.70;1.27;;;5.20;99.90;;;;;;5036584;28;25124;-75
2023/02/25 07:53:58;;;;;;;12.25;1.80;;;5.20;99.90;;;;;;5024583;28;25083;-73
2023/02/25 07:56:26;;;;;;;10.45;1.75;;;5.30;99.90;;;;;;5022651;28;25054;-75
2023/02/25 07:58:51;;;;;;;11.77;1.75;;;5.30;99.90;;;;;;5025396;28;25128;-74
2023/02/25 08:01:32;;;;;;;14.93;2.00;;;5.30;99.90;;;;;;5034044;28;25145;-73
2023/02/25 08:04:02;;;;;;;12.43;1.70;;;5.20;99.90;;;;;;5035847;28;25073;-74
2023/02/25 08:06:28;;;;;;;14.73;2.17;;;5.20;99.90;;;;;;5036328;28;25105;-76
2023/02/25 08:08:55;;;;;;;11.73;2.40;;;5.20;99.90;;;;;;5038020;28;25127;-74
2023/02/25 08:11:22;;;;;;;7.88;2.70;;;5.20;99.90;;;;;;5037303;28;25047;-74
2023/02/25 08:13:48;;;;;;;17.10;2.88;;;5.30;99.90;;;;;;5037286;28;25069;-74
2023/02/25 08:16:16;;;;;;;18.80;2.47;;;5.30;99.90;;;;;;5035686;28;25078;-77
2023/02/25 08:18:42;;;;;;;19.45;2.50;;;5.40;99.90;;;;;;5048941;28;25057;-75
2023/02/25 08:21:12;;;;;;;12.20;2.13;;;5.40;99.90;;;;;;5035777;28;25168;-72
2023/02/25 08:23:38;;;;;;;14.02;2.13;;;5.40;99.90;;;;;;5036813;28;25076;-75
2023/02/25 08:26:04;;;;;;;10.43;2.58;;;5.50;99.90;;;;;;5038792;28;25054;-74
2023/02/25 08:28:30;;;;;;;6.53;1.83;;;5.60;99.90;;;;;;5038322;28;25144;-76
2023/02/25 08:30:56;;;;;;;19.38;2.65;;;5.60;99.90;;;;;;5037134;28;25094;-72
2023/02/25 08:33:22;;;;;;;13.18;2.53;;;5.60;99.90;;;;;;5038586;28;25067;-73
2023/02/25 08:35:49;;;;;;;17.70;2.40;;;5.70;99.90;;;;;;5037123;28;25075;-73
2023/02/25 08:38:15;;;;;;;15.32;2.22;;;5.70;99.90;;;;;;5037239;28;25064;-74
2023/02/25 08:40:41;;;;;;;10.25;2.85;;;5.80;99.90;;;;;;5037685;28;25083;-74
2023/02/25 08:43:07;;;;;;;14.95;2.22;;;5.90;99.90;;;;;;5037372;28;25146;-73
2023/02/25 08:45:35;;;;;;;16.05;2.88;;;6.00;99.90;;;;;;5027238;28;25064;-73
2023/02/25 08:48:00;;;;;;;10.50;2.70;;;6.00;99.90;;;;;;5038029;28;25124;-73
2023/02/25 08:50:26;;;;;;;14.95;2.90;;;6.20;99.90;;;;;;5023962;28;25060;-73
2023/02/25 08:52:52;;;;;;;9.05;2.20;;;6.20;99.90;;;;;;5039979;28;25095;-75
2023/02/25 08:55:18;;;;;;;16.80;2.85;;;6.30;99.90;;;;;;5038729;28;25094;-74
2023/02/25 08:57:44;;;;;;;11.38;2.25;;;6.40;99.90;;;;;;5033745;28;25081;-72
2023/02/25 09:00:14;;;;;;;14.85;2.28;;;6.40;99.90;;;;;;5024388;28;25059;-74
2023/02/25 09:02:39;;;;;;;14.43;3.38;;;6.40;99.90;;;;;;5033213;28;25148;-76
2023/02/25 09:05:06;;;;;;;22.52;2.92;;;6.50;99.90;;;;;;5034643;28;25096;-75
2023/02/25 09:07:31;;;;;;;15.50;2.75;;;6.50;99.90;;;;;;5034889;28;25076;-74
2023/02/25 09:09:57;;;;;;;19.15;2.67;;;6.60;99.90;;;;;;5023065;28;25077;-75
2023/02/25 09:12:23;;;;;;;14.57;3.22;;;6.70;99.90;;;;;;5024522;28;25140;-74
2023/02/25 09:14:49;;;;;;;13.68;2.30;;;6.80;99.90;;;;;;5037433;28;25058;-77
2023/02/25 09:17:15;;;;;;;12.18;2.67;;;6.90;99.90;;;;;;5034877;28;25088;-73
2023/02/25 09:19:41;;;;;;;11.73;2.40;;;6.80;99.90;;;;;;5025036;28;25065;-74
2023/02/25 09:22:08;;;;;;;20.85;3.53;;;6.90;99.90;;;;;;5040144;28;25064;-75
2023/02/25 09:24:34;;;;;;;16.23;3.00;;;7.00;99.90;;;;;;5040104;28;25071;-77
2023/02/25 09:27:06;;;;;;;9.23;3.30;;;7.10;99.90;;;;;;5036692;28;25105;-72
2023/02/25 09:29:33;;;;;;;;;;;6.80;99.90;;;;;;5037997;28;25055;-76
2023/02/25 09:31:59;;;;;;;10.68;3.08;;;6.70;99.90;;;;;;5038272;28;24072;-75
2023/02/25 09:34:24;;;;;;;14.38;2.92;;;6.70;99.90;;;;;;5039920;28;25080;-75
2023/02/25 09:36:50;;;;;;;16.50;2.40;;;6.70;99.90;;;;;;5030424;28;25052;-73
2023/02/25 09:39:15;;;;;;;4.43;1.13;;;6.60;99.90;;;;;;5040825;28;25083;-74
2023/02/25 09:41:48;;;;;;;4.35;1.08;;;5.90;99.90;;;;;;5041779;28;25061;-77
2023/02/25 09:44:27;;;;;;;11.00;1.65;;;5.30;99.90;;;;;;5018406;28;25079;-77
2023/02/25 09:47:09;;;;;;;5.43;1.58;;;5.10;99.90;;;;;;5042564;28;25062;-77
2023/02/25 09:49:59;;;;;;;6.63;0.97;;;5.20;99.90;;;;;;5042681;28;25138;-78
2023/02/25 09:52:27;;;;;;;11.27;1.30;;;5.20;99.90;;;;;;5043970;28;25075;-78
2023/02/25 09:55:02;;;;;;;8.82;1.95;;;5.30;99.90;;;;;;5045663;28;25150;-79
2023/02/25 09:57:30;;;;;;;7.78;1.85;;;5.40;99.90;;;;;;5040039;28;25065;-78
2023/02/25 09:59:56;;;;;;;12.65;1.60;;;5.60;99.90;;;;;;5035928;28;25073;-80
2023/02/25 10:02:49;;;;;;;9.63;1.70;;;5.70;99.90;;;;;;5042157;28;25072;-77
2023/02/25 10:05:27;;;;;;;11.75;1.73;;;5.90;99.90;;;;;;5030640;28;25055;-79
2023/02/25 10:08:17;;;;;;;15.05;2.10;;;6.00;99.90;;;;;;5042036;28;25059;-79
2023/02/25 10:11:16;;;;;;;11.82;2.60;;;6.10;99.90;;;;;;5033334;28;25103;-77
2023/02/25 10:13:52;;;;;;;14.65;2.20;;;6.20;99.90;;;;;;5042737;28;25071;-79
2023/02/25 10:16:45;;;;;;;11.18;2.20;;;6.20;99.90;;;;;;5042974;28;25087;-76
2023/02/25 10:19:29;;;;;;;;;;;6.30;99.90;;;;;;5042290;28;25067;-79
2023/02/25 10:22:13;;;;;;;14.23;2.38;;;6.50;99.90;;;;;;5030409;28;25075;-79
2023/02/25 10:24:45;;;;;;;12.20;2.42;;;6.40;99.90;;;;;;5044737;28;25073;-78
2023/02/25 10:27:32;;;;;;;12.57;2.13;;;6.40;99.90;;;;;;5042305;28;25103;-79
2023/02/25 10:30:14;;;;;;;9.25;1.75;;;6.50;99.90;;;;;;5040889;28;25078;-79
2023/02/25 10:32:41;;;;;;;7.05;1.40;;;6.60;99.90;;;;;;5028656;28;25049;-76
2023/02/25 10:35:27;;;;;;;11.43;2.05;;;6.50;99.90;;;;;;5039919;28;25067;-75
2023/02/25 10:37:53;;;;;;;7.97;1.42;;;6.60;99.90;;;;;;5039139;28;25155;-76
2023/02/25 10:40:21;;;;;;;16.77;1.70;;;6.60;99.90;;;;;;5030447;28;25069;-75
2023/02/25 10:42:53;;;;;;;10.63;1.10;;;6.60;99.90;;;;;;5038563;28;25064;-80
2023/02/25 10:45:30;;;;;;;3.80;1.30;;;7.00;99.90;;;;;;5040603;28;25094;-78
2023/02/25 10:48:25;;;;;;;4.70;1.40;;;7.00;99.90;;;;;;5039802;28;25063;-78
2023/02/25 10:51:17;;;;;;;6.05;1.52;;;6.90;99.90;;;;;;5035650;28;25069;-78
2023/02/25 10:53:54;;;;;;;3.88;1.27;;;6.60;99.90;;;;;;5046932;28;25068;-82
2023/02/25 10:56:21;;;;;;;5.60;0.70;;;6.50;99.90;;;;;;5028152;28;25070;-79
2023/02/25 10:59:05;;;;;;;2.33;0.55;;;6.30;99.90;;;;;;5037028;28;25155;-77
2023/02/25 11:01:42;;;;;;;1.17;0.40;;;6.20;99.90;;;;;;5023988;28;25069;-77
2023/02/25 11:04:13;;;;;;;5.47;0.68;;;6.60;99.90;;;;;;5038201;28;25077;-76
2023/02/25 11:06:42;;;;;;;2.38;1.00;;;6.80;99.90;;;;;;5039183;28;25144;-78
2023/02/25 11:09:19;;;;;;;6.13;1.25;;;6.80;99.90;;;;;;5028564;28;25158;-82
2023/02/25 11:11:54;;;;;;;5.65;0.68;;;7.00;99.90;;;;;;5039317;28;25112;-77
2023/02/25 11:14:29;;;;;;;4.53;0.70;;;6.80;99.90;;;;;;5039010;28;25084;-77
2023/02/25 11:17:21;;;;;;;3.55;1.70;;;6.60;99.90;;;;;;5029563;28;25093;-71
2023/02/25 11:20:19;;;;;;;4.95;1.10;;;6.60;99.90;;;;;;5025412;28;25067;-75
2023/02/25 11:22:50;;;;;;;11.20;1.23;;;6.60;99.90;;;;;;5039483;28;25060;-80
2023/02/25 11:25:18;;;;;;;3.10;1.02;;;6.50;99.90;;;;;;5039423;28;25072;-76
2023/02/25 11:27:52;;;;;;;8.25;1.15;;;6.60;99.90;;;;;;5039473;28;25096;-78
2023/02/25 11:30:23;;;;;;;7.05;1.85;;;6.90;99.90;;;;;;5039618;28;25074;-76
2023/02/25 11:32:54;;;;;;;3.92;0.70;;;6.90;99.90;;;;;;5041214;28;25066;-76
2023/02/25 11:35:28;;;;;;;8.00;1.20;;;7.10;99.90;;;;;;5029361;28;25076;-79
2023/02/25 11:37:57;;;;;;;4.53;0.82;;;7.30;99.90;;;;;;5041432;28;25062;-79
2023/02/25 11:40:28;;;;;;;5.03;1.33;;;7.20;99.90;;;;;;5026303;28;25075;-78
2023/02/25 11:43:18;;;;;;;6.43;1.35;;;7.30;99.90;;;;;;5038234;28;25057;-76
2023/02/25 11:45:51;;;;;;;7.68;1.33;;;7.30;99.90;;;;;;5028427;28;25067;-79
2023/02/25 11:48:24;;;;;;;4.35;1.15;;;7.40;99.90;;;;;;5042995;28;25080;-78
2023/02/25 11:50:56;;;;;;;5.93;1.65;;;7.90;99.90;;;;;;5042819;28;25078;-79
2023/02/25 11:53:40;;;;;;;3.65;0.98;;;8.00;99.90;;;;;;5038213;28;25059;-76
2023/02/25 11:56:28;;;;;;;4.85;0.88;;;7.90;99.90;;;;;;5033823;28;25061;-77
2023/02/25 11:59:02;;;;;;;9.35;1.70;;;7.80;99.90;;;;;;5036188;28;25119;-74
2023/02/25 12:01:42;;;;;;;1.90;0.68;;;7.70;99.90;;;;;;5037699;28;25075;-74
2023/02/25 12:04:43;;;;;;;10.57;1.27;;;7.80;99.90;;;;;;5022805;28;25104;-77
2023/02/25 12:07:32;;;;;;;3.75;0.70;;;7.40;99.90;;;;;;5037549;28;25053;-75
2023/02/25 12:10:10;;;;;;;2.47;0.65;;;7.20;99.90;;;;;;5034756;28;25055;-74
2023/02/25 12:12:44;;;;;;;12.93;1.08;;;6.70;99.90;;;;;;5036317;28;25074;-74
2023/02/25 12:15:33;;;;;;;3.90;0.90;;;6.50;99.90;;;;;;5035919;28;25139;-74
2023/02/25 12:18:30;;;;;;;2.97;0.63;;;6.50;99.90;;;;;;5034568;28;25099;-73
2023/02/25 12:21:13;;;;;;;4.10;1.10;;;6.20;99.90;;;;;;5035017;28;25063;-77
2023/02/25 12:24:18;;;;;;;2.60;1.02;;;5.90;99.90;;;;;;5033423;28;25105;-71
2023/02/25 12:27:05;;;;;;;5.63;0.77;;;5.80;99.90;;;;;;5037593;28;25073;-77
2023/02/25 12:29:56;;;;;;;7.32;1.25;;;5.60;99.90;;;;;;5037927;28;25089;-77
2023/02/25 12:32:51;;;;;;;1.75;0.77;;;5.70;99.90;;;;;;5035116;28;25067;-77
2023/02/25 12:35:32;;;;;;;8.55;0.80;;;5.90;99.90;;;;;;5035798;28;25082;-77
2023/02/25 12:38:28;;;;;;;10.35;0.95;;;6.00;99.90;;;;;;5037307;28;25100;-74
2023/02/25 12:41:30;;;;;;;4.03;1.10;;;6.00;99.90;;;;;;5035911;28;25044;-74
2023/02/25 12:44:33;;;;;;;1.58;0.65;;;6.00;99.90;;;;;;5036471;28;25077;-77
2023/02/25 12:47:15;;;;;;;3.65;1.00;;;6.40;99.90;;;;;;5038245;28;25058;-73
2023/02/25 12:49:50;;;;;;;4.10;1.27;;;6.80;99.90;;;;;;5029331;28;25063;-74
2023/02/25 12:52:35;;;;;;;2.60;1.10;;;6.70;99.90;;;;;;5026965;28;25083;-72
2023/02/25 12:55:27;;;;;;;3.25;1.27;;;6.60;99.90;;;;;;5039521;28;25064;-77
2023/02/25 12:58:07;;;;;;;;;;;6.80;99.90;;;;;;5039913;28;25061;-78
2023/02/25 13:01:08;;;;;;;11.43;1.15;;;6.90;99.90;;;;;;5038013;28;24099;-74
2023/02/25 13:03:47;;;;;;;6.35;1.05;;;6.90;99.90;;;;;;5029554;28;25060;-80
2023/02/25 13:06:36;;;;;;;10.82;1.35;;;7.00;99.90;;;;;;5037474;28;25066;-79
2023/02/25 13:09:22;;;;;;;8.27;1.17;;;7.10;99.90;;;;;;5031507;28;25056;-81
2023/02/25 13:12:24;;;;;;;5.63;1.30;;;7.00;99.90;;;;;;5032332;28;25063;-79